Time;durP1;ratioP1;P1;durP2;ratioP2;P2;SDS_P1;SDS_P2;PMS_P1;PMS_P2;Temp;Humidity;BMP_temperature;BMP_pressure;BME280_temperature;BME280_humidity;BME280_pressure;Samples;Min_cycle;Max_cycle;Signal;HPM_P1;HPM_P2
2022/07/30 00:00:35;;;;;;;;;4.00;4.00;;;;;26.26;31.20;101118.28;5007430;28;45774;-78
2022/07/30 00:03:00;;;;;;;;;3.00;3.00;;;;;26.15;31.48;101102.69;5020744;28;45578;-82
2022/07/30 00:05:25;;;;;;;;;4.00;4.00;;;;;26.13;31.41;101112.78;5020286;28;45684;-80
2022/07/30 00:07:51;;;;;;;;;4.00;4.00;;;;;26.17;31.54;101119.44;5018958;28;46212;-80
2022/07/30 00:10:16;;;;;;;;;3.25;3.00;;;;;26.03;31.66;101106.94;5018706;28;45696;-77
2022/07/30 00:12:42;;;;;;;;;4.50;4.00;;;;;26.11;31.70;101128.28;4999593;28;45626;-79
2022/07/30 00:15:08;;;;;;;;;4.75;4.00;;;;;26.07;31.99;101118.97;5018837;28;45696;-78
2022/07/30 00:17:33;;;;;;;;;5.00;4.00;;;;;26.00;32.03;101118.09;5018683;28;46142;-80
2022/07/30 00:19:59;;;;;;;;;4.00;4.00;;;;;25.91;32.31;101106.69;5018976;28;45656;-79
2022/07/30 00:22:24;;;;;;;;;5.00;4.00;;;;;25.95;32.39;101115.16;4999330;28;45994;-79
2022/07/30 00:24:50;;;;;;;;;4.00;3.25;;;;;25.88;32.25;101105.22;5016989;28;46006;-79
2022/07/30 00:27:15;;;;;;;;;5.25;5.00;;;;;25.92;32.68;101113.69;5017575;28;46423;-80
2022/07/30 00:29:40;;;;;;;;;4.75;4.25;;;;;25.86;32.73;101107.25;5016560;28;45691;-84
2022/07/30 00:32:06;;;;;;;;;5.25;5.25;;;;;25.86;32.70;101112.63;5017916;28;45908;-85
2022/07/30 00:34:31;;;;;;;;;7.25;7.00;;;;;25.87;32.58;101116.97;5018908;28;46272;-84
2022/07/30 00:36:57;;;;;;;;;6.25;6.00;;;;;25.85;32.90;101119.03;5019051;28;46347;-85
2022/07/30 00:39:22;;;;;;;;;7.50;7.00;;;;;25.72;32.90;101102.00;5018916;28;45612;-84
2022/07/30 00:42:01;;;;;;;;;6.00;5.50;;;;;25.76;33.13;101109.47;5018858;28;45717;-86
2022/07/30 00:44:28;;;;;;;;;6.00;6.00;;;;;25.74;33.27;101108.00;5020364;28;46165;-81
2022/07/30 00:46:54;;;;;;;;;5.50;5.50;;;;;25.67;33.13;101104.44;5021974;28;46177;-84
2022/07/30 00:49:19;;;;;;;;;5.75;5.25;;;;;25.70;33.31;101112.09;5015985;28;46007;-78
2022/07/30 00:51:45;;;;;;;;;5.00;5.00;;;;;25.62;33.54;101099.66;5017018;28;45689;-74
2022/07/30 00:54:11;;;;;;;;;5.75;5.25;;;;;25.63;33.38;101101.31;4997067;28;48301;-78
2022/07/30 00:56:36;;;;;;;;;4.00;4.00;;;;;25.58;33.49;101095.72;5015803;28;45633;-80
2022/07/30 00:59:04;;;;;;;;;4.00;4.00;;;;;25.53;33.61;101094.59;5017987;28;45805;-82
2022/07/30 01:01:33;;;;;;;;;5.00;5.00;;;;;25.46;33.60;101090.00;5000874;28;45974;-82
2022/07/30 01:03:59;;;;;;;;;5.00;5.00;;;;;25.53;33.86;101108.03;5000108;28;48177;-81
2022/07/30 01:06:25;;;;;;;;;6.00;5.25;;;;;25.46;33.48;101099.91;5016827;28;45795;-82
2022/07/30 01:08:50;;;;;;;;;5.75;5.50;;;;;25.45;33.95;101092.88;5015318;28;45635;-86
2022/07/30 01:11:15;;;;;;;;;5.50;5.50;;;;;25.38;34.21;101100.88;5015492;28;45686;-79
2022/07/30 01:13:42;;;;;;;;;4.75;4.00;;;;;25.29;34.12;101095.84;5015151;28;45758;-82
2022/07/30 01:16:08;;;;;;;;;4.50;4.50;;;;;25.35;34.54;101100.44;5014959;28;45665;-85
2022/07/30 01:21:28;;;;;;;;;4.25;4.25;;;;;25.24;34.77;101092.91;5015810;28;45618;-80
2022/07/30 01:23:59;;;;;;;;;5.75;5.25;;;;;25.16;35.05;101084.97;5003284;28;46364;-81
2022/07/30 01:26:25;;;;;;;;;6.00;6.00;;;;;25.14;35.22;101087.88;5016676;28;45949;-80
2022/07/30 01:28:54;;;;;;;;;5.50;5.25;;;;;25.06;35.20;101083.47;5015698;28;45688;-79
2022/07/30 01:31:22;;;;;;;;;5.25;5.25;;;;;25.07;35.58;101087.81;5014554;28;45773;-77
2022/07/30 01:33:49;;;;;;;;;5.00;4.25;;;;;25.09;35.28;101101.03;5016213;28;46431;-78
2022/07/30 01:36:17;;;;;;;;;7.00;5.50;;;;;25.06;36.07;101098.72;5016552;28;46006;-81
2022/07/30 01:38:45;;;;;;;;;5.50;4.75;;;;;25.02;35.97;101106.31;5015597;28;46503;-78
2022/07/30 01:41:12;;;;;;;;;5.00;5.00;;;;;24.90;35.88;101083.72;4999693;28;46019;-84
2022/07/30 01:43:40;;;;;;;;;6.00;6.00;;;;;24.84;36.09;101088.97;5014779;28;45978;-77
2022/07/30 01:46:08;;;;;;;;;5.50;4.50;;;;;24.91;35.74;101090.72;5013814;28;46336;-79
2022/07/30 01:48:39;;;;;;;;;5.75;5.50;;;;;24.83;35.60;101088.13;5012334;28;45947;-79
2022/07/30 01:51:08;;;;;;;;;5.00;5.00;;;;;24.84;36.32;101105.03;5013610;28;46177;-81
2022/07/30 01:53:37;;;;;;;;;5.25;5.00;;;;;24.82;36.14;101104.44;5013674;28;45852;-81
2022/07/30 01:56:04;;;;;;;;;5.50;5.00;;;;;24.75;36.70;101101.66;5014477;28;46141;-80
2022/07/30 01:58:37;;;;;;;;;5.50;5.00;;;;;24.67;36.71;101093.72;5014799;28;45967;-82
2022/07/30 02:01:03;;;;;;;;;4.75;4.75;;;;;24.67;36.43;101107.13;5014774;28;46203;-78
2022/07/30 02:03:29;;;;;;;;;5.50;5.00;;;;;24.62;37.14;101106.84;4995612;28;48313;-83
2022/07/30 02:06:28;;;;;;;;;6.00;6.00;;;;;24.56;37.02;101097.72;5012378;28;46183;-78
2022/07/30 02:08:56;;;;;;;;;5.50;5.50;;;;;24.52;36.92;101107.16;4927425;28;45831;-80
2022/07/30 02:14:23;;;;;;;;;4.25;4.25;;;;;24.35;36.86;101083.44;4932035;28;45738;-80
2022/07/30 02:16:53;;;;;;;;;7.50;6.00;;;;;24.38;36.98;101100.00;4931408;28;46102;-84
2022/07/30 02:19:21;;;;;;;;;7.00;6.00;;;;;24.34;37.69;101098.72;4923794;28;45699;-79
2022/07/30 02:22:06;;;;;;;;;5.25;5.00;;;;;24.31;37.27;101100.91;4918065;28;47044;-78
2022/07/30 02:24:35;;;;;;;;;4.50;4.25;;;;;24.15;37.22;101085.84;4927625;28;46531;-79
2022/07/30 02:27:06;;;;;;;;;5.75;5.00;;;;;24.12;37.67;101083.53;4930384;28;46322;-78
2022/07/30 02:29:34;;;;;;;;;4.00;4.00;;;;;24.06;37.99;101081.59;4912606;28;45885;-79
2022/07/30 02:32:04;;;;;;;;;5.00;5.00;;;;;24.07;38.26;101091.31;4919306;28;45785;-79
2022/07/30 02:34:33;;;;;;;;;6.75;6.00;;;;;24.06;37.48;101089.63;4916297;28;46481;-79
2022/07/30 02:37:05;;;;;;;;;5.75;5.00;;;;;24.06;38.01;101095.00;4931642;28;46675;-80
2022/07/30 02:39:33;;;;;;;;;6.25;6.00;;;;;24.01;38.06;101087.53;4931892;28;46152;-84
2022/07/30 02:41:58;;;;;;;;;6.00;5.25;;;;;24.02;37.83;101086.47;4935759;28;46040;-79
2022/07/30 02:44:28;;;;;;;;;6.25;6.00;;;;;23.99;38.36;101084.19;4948545;28;45614;-79
2022/07/30 02:46:54;;;;;;;;;6.25;6.25;;;;;23.93;37.96;101078.72;5014984;28;45659;-82
2022/07/30 02:49:23;;;;;;;;;5.50;5.00;;;;;23.84;38.46;101068.13;5013900;28;45992;-84
2022/07/30 02:51:49;;;;;;;;;6.00;6.00;;;;;23.87;38.08;101079.47;5013929;28;45753;-80
2022/07/30 02:54:18;;;;;;;;;6.75;5.00;;;;;23.84;37.99;101081.50;5014913;28;46011;-79
2022/07/30 02:56:46;;;;;;;;;5.75;5.75;;;;;23.88;38.66;101087.31;5016736;28;46119;-84
2022/07/30 02:59:13;;;;;;;;;6.00;5.50;;;;;23.86;38.89;101086.66;5017632;28;45658;-83
2022/07/30 03:01:40;;;;;;;;;6.75;5.75;;;;;23.78;38.48;101086.75;5000624;28;45767;-81
2022/07/30 03:04:07;;;;;;;;;6.00;6.00;;;;;23.79;39.06;101083.91;5017982;28;45779;-83
2022/07/30 03:06:34;;;;;;;;;7.00;6.00;;;;;23.79;38.85;101093.78;5018666;28;45732;-80
2022/07/30 03:09:01;;;;;;;;;4.50;4.25;;;;;23.72;38.76;101079.47;5017819;28;45794;-80
2022/07/30 03:11:29;;;;;;;;;6.00;6.00;;;;;23.68;39.04;101087.03;5016926;28;45798;-85
2022/07/30 03:13:55;;;;;;;;;6.75;5.75;;;;;23.75;38.50;101095.16;5016629;28;46407;-79
2022/07/30 03:16:23;;;;;;;;;7.00;6.50;;;;;23.72;38.88;101090.16;5016424;28;45863;-82
2022/07/30 03:18:49;;;;;;;;;5.50;5.00;;;;;23.71;38.95;101093.84;5015104;28;45668;-82
2022/07/30 03:21:18;;;;;;;;;6.75;6.75;;;;;23.65;39.14;101079.34;5015915;28;45646;-79
2022/07/30 03:23:46;;;;;;;;;6.00;6.00;;;;;23.60;39.13;101081.75;5015660;28;46546;-79
2022/07/30 03:26:13;;;;;;;;;7.25;7.00;;;;;23.65;39.23;101094.56;5004101;28;47081;-82
2022/07/30 03:28:39;;;;;;;;;6.75;6.00;;;;;23.63;39.30;101092.09;5007671;28;45709;-82
2022/07/30 03:31:09;;;;;;;;;6.75;6.50;;;;;23.53;38.89;101071.97;5009213;28;46323;-84
2022/07/30 03:33:35;;;;;;;;;7.50;6.00;;;;;23.57;39.01;101078.63;5016085;28;45846;-87
2022/07/30 03:36:02;;;;;;;;;7.00;6.00;;;;;23.52;38.99;101065.78;5015251;28;46034;-80
2022/07/30 03:38:29;;;;;;;;;6.50;6.25;;;;;23.53;39.34;101072.81;5015478;28;45995;-82
2022/07/30 03:40:55;;;;;;;;;5.50;5.25;;;;;23.53;39.17;101075.47;5017030;28;45627;-80
2022/07/30 03:43:21;;;;;;;;;7.00;6.00;;;;;23.61;39.10;101090.59;4997665;28;46899;-83
2022/07/30 03:45:48;;;;;;;;;6.00;5.75;;;;;23.47;39.17;101068.19;5015334;28;46020;-83
2022/07/30 03:48:14;;;;;;;;;5.00;4.00;;;;;23.53;39.52;101085.34;5016812;28;46172;-80
2022/07/30 03:50:40;;;;;;;;;8.00;7.00;;;;;23.51;39.36;101090.88;5015882;28;46031;-89
2022/07/30 03:53:08;;;;;;;;;6.00;6.00;;;;;23.44;39.40;101082.69;5019275;28;45651;-83
2022/07/30 03:55:34;;;;;;;;;8.00;5.50;;;;;23.48;39.31;101101.09;5017942;28;46110;-80
2022/07/30 03:58:00;;;;;;;;;5.00;5.00;;;;;23.46;39.77;101097.78;5015380;28;45678;-84
2022/07/30 04:00:26;;;;;;;;;7.00;6.00;;;;;23.35;39.67;101085.63;4997749;28;45789;-80
2022/07/30 04:02:52;;;;;;;;;5.00;5.00;;;;;23.44;40.03;101101.41;5015800;28;46707;-82
2022/07/30 04:05:18;;;;;;;;;6.75;6.00;;;;;23.39;39.36;101084.25;5015693;28;46057;-82
2022/07/30 04:07:43;;;;;;;;;7.25;7.00;;;;;23.42;39.44;101086.59;4997600;28;46238;-82
2022/07/30 04:10:09;;;;;;;;;6.25;6.25;;;;;23.38;39.87;101079.91;5014558;28;45928;-85
2022/07/30 04:12:35;;;;;;;;;7.00;6.00;;;;;23.41;39.59;101087.59;4999406;28;47426;-86
2022/07/30 04:15:01;;;;;;;;;8.25;7.75;;;;;23.40;39.40;101093.94;5018072;28;46337;-82
2022/07/30 04:17:40;;;;;;;;;6.75;6.25;;;;;23.36;39.80;101087.31;5017596;28;45986;-83
2022/07/30 04:20:12;;;;;;;;;9.25;7.50;;;;;23.42;39.92;101091.94;5019424;28;45703;-80
2022/07/30 04:22:39;;;;;;;;;8.00;7.50;;;;;23.41;40.20;101096.44;5019576;28;46950;-80
2022/07/30 04:25:07;;;;;;;;;9.00;8.25;;;;;23.38;39.75;101099.47;5018465;28;46057;-86
2022/07/30 04:27:35;;;;;;;;;10.25;9.50;;;;;23.29;40.18;101097.03;5018563;28;46237;-81
2022/07/30 04:30:01;;;;;;;;;5.00;4.00;;;;;23.24;39.70;101094.91;5021467;28;45840;-79
2022/07/30 04:32:27;;;;;;;;;15.25;12.50;;;;;23.30;39.91;101104.06;5023574;28;45707;-82
2022/07/30 04:34:54;;;;;;;;;18.00;14.25;;;;;23.20;40.28;101090.09;5022121;28;46050;-79
2022/07/30 04:37:22;;;;;;;;;9.50;8.50;;;;;23.26;40.22;101102.75;5007838;28;45734;-85
2022/07/30 04:39:50;;;;;;;;;14.00;13.00;;;;;23.24;39.99;101110.13;5016386;28;46138;-88
2022/07/30 04:42:15;;;;;;;;;12.75;10.75;;;;;23.26;40.01;101116.97;5015139;28;46624;-81
2022/07/30 04:44:41;;;;;;;;;12.50;11.50;;;;;23.25;40.17;101111.78;5016103;28;45950;-86
2022/07/30 04:47:07;;;;;;;;;12.25;10.50;;;;;23.23;39.94;101100.44;5016271;28;45598;-85
2022/07/30 04:49:33;;;;;;;;;10.50;8.75;;;;;23.26;40.43;101108.94;5015995;28;45568;-82
2022/07/30 04:52:01;;;;;;;;;12.75;11.00;;;;;23.19;39.90;101104.47;5017604;28;46471;-80
2022/07/30 04:54:36;;;;;;;;;8.50;8.25;;;;;23.19;40.01;101113.34;5018003;28;46237;-87
2022/07/30 04:57:02;;;;;;;;;8.75;8.75;;;;;23.09;39.96;101096.72;5018648;28;45747;-82
2022/07/30 04:59:28;;;;;;;;;10.50;9.25;;;;;23.17;40.42;101107.31;5014075;28;45782;-82
2022/07/30 05:01:56;;;;;;;;;12.50;11.50;;;;;23.11;40.48;101100.00;5014173;28;46336;-78
2022/07/30 05:04:23;;;;;;;;;11.00;9.00;;;;;23.22;40.51;101106.78;5002098;28;45911;-83
2022/07/30 05:06:50;;;;;;;;;8.00;7.25;;;;;23.24;40.12;101110.13;5014741;28;46097;-85
2022/07/30 05:09:16;;;;;;;;;7.25;6.50;;;;;23.15;40.41;101095.16;4996274;28;45706;-84
2022/07/30 05:11:48;;;;;;;;;8.00;7.00;;;;;23.21;40.22;101103.28;5013558;28;46358;-81
2022/07/30 05:14:13;;;;;;;;;8.00;7.00;;;;;23.24;39.93;101105.59;4996741;28;46226;-78
2022/07/30 05:16:39;;;;;;;;;8.00;7.25;;;;;23.28;40.28;101117.59;5013258;28;46151;-79
2022/07/30 05:19:04;;;;;;;;;7.75;7.00;;;;;23.22;40.39;101102.28;5013009;28;45729;-80
2022/07/30 05:21:30;;;;;;;;;8.00;7.75;;;;;23.34;40.04;101126.75;5012662;28;46382;-77
2022/07/30 05:23:55;;;;;;;;;10.00;8.75;;;;;23.27;40.56;101121.28;5012954;28;45967;-80
2022/07/30 05:26:20;;;;;;;;;8.50;8.00;;;;;23.19;40.23;101109.81;5014361;28;45833;-78
2022/07/30 05:28:46;;;;;;;;;7.00;7.00;;;;;23.23;40.51;101119.97;5015204;28;46042;-78
2022/07/30 05:31:11;;;;;;;;;9.00;8.00;;;;;23.30;39.84;101125.44;5014202;28;45792;-81
2022/07/30 05:33:37;;;;;;;;;8.50;7.50;;;;;23.31;39.75;101124.44;5017143;28;45805;-81
2022/07/30 05:36:02;;;;;;;;;8.75;8.00;;;;;23.39;39.90;101133.22;5020507;28;45804;-79
2022/07/30 05:38:28;;;;;;;;;10.25;8.50;;;;;23.38;40.41;101120.84;5020633;28;45898;-79
2022/07/30 05:40:53;;;;;;;;;8.00;8.00;;;;;23.38;39.88;101126.22;4997279;28;46706;-81
2022/07/30 05:43:19;;;;;;;;;9.50;7.00;;;;;23.36;39.95;101119.41;5013050;28;45808;-81
2022/07/30 05:45:44;;;;;;;;;9.00;8.50;;;;;23.42;40.16;101126.69;5013647;28;45734;-84
2022/07/30 05:48:09;;;;;;;;;7.00;7.00;;;;;23.49;40.43;101140.19;5014100;28;45628;-81
2022/07/30 05:50:35;;;;;;;;;6.75;6.00;;;;;23.50;40.41;101137.34;5012670;28;46659;-84
2022/07/30 05:53:01;;;;;;;;;6.00;6.00;;;;;23.49;40.65;101138.34;4997269;28;45741;-82
2022/07/30 05:55:26;;;;;;;;;7.25;6.50;;;;;23.43;40.86;101128.34;5011860;28;45733;-81
2022/07/30 05:57:51;;;;;;;;;7.50;7.00;;;;;23.38;40.76;101120.03;5001527;28;45643;-81
2022/07/30 06:00:17;;;;;;;;;8.25;7.75;;;;;23.44;41.15;101132.69;4995104;28;49256;-82
2022/07/30 06:02:43;;;;;;;;;8.00;7.00;;;;;23.44;41.23;101136.19;5013820;28;46163;-85
2022/07/30 06:05:08;;;;;;;;;7.00;6.50;;;;;23.39;41.49;101129.72;5013347;28;46095;-81
2022/07/30 06:07:34;;;;;;;;;7.00;6.00;;;;;23.33;40.61;101125.91;5001019;28;45680;-80
2022/07/30 06:10:00;;;;;;;;;7.75;7.75;;;;;23.45;40.78;101139.69;5012937;28;46408;-80
2022/07/30 06:12:27;;;;;;;;;7.50;7.50;;;;;23.35;40.88;101121.22;5001626;28;45761;-84
2022/07/30 06:14:53;;;;;;;;;6.50;6.25;;;;;23.47;41.08;101134.22;5014660;28;45722;-82
2022/07/30 06:17:18;;;;;;;;;6.75;6.75;;;;;23.39;40.83;101127.88;5017555;28;45695;-79
2022/07/30 06:19:43;;;;;;;;;9.00;6.25;;;;;23.40;41.35;101136.75;5019118;28;45634;-79
2022/07/30 06:22:09;;;;;;;;;7.00;7.00;;;;;23.42;41.30;101140.91;5004066;28;48524;-80
2022/07/30 06:24:34;;;;;;;;;8.25;6.00;;;;;23.35;41.11;101137.28;5017806;28;46160;-81
2022/07/30 06:27:00;;;;;;;;;7.00;7.00;;;;;23.43;41.57;101147.06;5005328;28;45894;-80
2022/07/30 06:29:25;;;;;;;;;8.00;7.00;;;;;23.38;41.06;101144.09;5018026;28;45904;-84
2022/07/30 06:31:51;;;;;;;;;7.00;6.75;;;;;23.36;41.38;101141.63;5013995;28;46290;-79
2022/07/30 06:34:16;;;;;;;;;6.50;5.50;;;;;23.39;41.60;101156.47;5014254;28;45610;-82
2022/07/30 06:36:41;;;;;;;;;8.25;8.00;;;;;23.42;41.38;101156.97;5014405;28;45745;-85
2022/07/30 06:39:07;;;;;;;;;7.25;7.25;;;;;23.34;41.42;101143.63;5013644;28;46216;-81
2022/07/30 06:41:32;;;;;;;;;6.00;6.00;;;;;23.39;40.77;101151.13;4996525;28;47201;-84
2022/07/30 06:43:58;;;;;;;;;6.75;6.50;;;;;23.46;41.24;101160.13;5014837;28;46096;-88
2022/07/30 06:46:23;;;;;;;;;7.00;6.00;;;;;23.53;40.57;101171.78;5016604;28;45896;-80
2022/07/30 06:48:48;;;;;;;;;7.00;7.00;;;;;23.50;41.27;101163.25;5020614;28;46078;-86
2022/07/30 06:51:14;;;;;;;;;7.00;7.00;;;;;23.57;40.61;101172.25;5015371;28;45578;-79
2022/07/30 06:53:39;;;;;;;;;7.00;6.00;;;;;23.62;40.35;101178.72;4998403;28;45838;-88
2022/07/30 06:56:05;;;;;;;;;7.00;6.25;;;;;23.65;40.47;101183.72;4998973;28;45938;-85
2022/07/30 06:58:30;;;;;;;;;7.00;6.75;;;;;23.68;40.39;101186.03;5014831;28;45596;-84
2022/07/30 07:00:56;;;;;;;;;8.00;8.00;;;;;23.70;40.23;101183.16;5012597;28;46011;-87
2022/07/30 07:03:21;;;;;;;;;7.50;7.50;;;;;23.72;40.58;101181.97;5012957;28;46321;-83
2022/07/30 07:05:47;;;;;;;;;5.50;5.00;;;;;23.70;39.79;101196.53;5012872;28;45849;-84
2022/07/30 07:08:12;;;;;;;;;6.75;6.25;;;;;23.65;39.77;101182.88;5014003;28;45937;-85
2022/07/30 07:10:38;;;;;;;;;7.00;6.25;;;;;23.66;40.27;101196.06;5014114;28;45787;-79
2022/07/30 07:13:03;;;;;;;;;7.25;6.00;;;;;23.59;40.39;101181.75;5012557;28;45905;-80
2022/07/30 07:15:28;;;;;;;;;6.25;6.25;;;;;23.64;39.93;101189.25;5011754;28;45651;-78
2022/07/30 07:17:54;;;;;;;;;7.25;7.00;;;;;23.58;39.89;101188.13;5012196;28;45757;-78
2022/07/30 07:20:19;;;;;;;;;7.00;6.00;;;;;23.68;39.89;101202.09;5011267;28;47008;-81
2022/07/30 07:22:45;;;;;;;;;7.75;6.00;;;;;23.71;40.29;101193.69;5012263;28;45796;-81
2022/07/30 07:25:10;;;;;;;;;5.00;4.50;;;;;23.71;39.98;101195.53;5012690;28;45567;-81
2022/07/30 07:27:36;;;;;;;;;6.50;6.00;;;;;23.77;40.02;101201.00;5011597;28;45936;-78
2022/07/30 07:30:03;;;;;;;;;7.00;7.00;;;;;23.82;39.89;101206.66;5010933;28;46069;-82
2022/07/30 07:32:29;;;;;;;;;7.00;6.00;;;;;23.84;40.05;101204.63;5002009;28;45795;-83
2022/07/30 07:34:54;;;;;;;;;7.25;7.25;;;;;23.86;40.56;101200.94;5012921;28;45802;-84
2022/07/30 07:37:20;;;;;;;;;8.75;7.00;;;;;23.87;40.46;101198.06;5012404;28;46840;-84
2022/07/30 07:39:45;;;;;;;;;7.25;7.25;;;;;23.87;40.54;101194.56;5011474;28;46382;-79
2022/07/30 07:42:10;;;;;;;;;7.25;6.25;;;;;23.89;40.66;101189.88;5013276;28;45938;-86
2022/07/30 07:44:36;;;;;;;;;7.00;6.25;;;;;23.91;40.76;101194.03;5011355;28;45668;-81
2022/07/30 07:47:01;;;;;;;;;7.00;7.00;;;;;23.96;40.51;101191.66;5014043;28;45781;-83
2022/07/30 07:49:27;;;;;;;;;5.50;5.50;;;;;24.02;40.59;101200.81;5015175;28;45717;-84
2022/07/30 07:51:52;;;;;;;;;7.50;7.50;;;;;24.01;40.76;101191.09;5015178;28;45732;-82
2022/07/30 07:54:18;;;;;;;;;8.25;7.50;;;;;24.10;40.29;101206.91;5014924;28;45869;-79
2022/07/30 07:56:43;;;;;;;;;7.50;7.50;;;;;24.06;40.70;101189.53;5015346;28;45996;-82
2022/07/30 07:59:09;;;;;;;;;9.75;8.00;;;;;24.15;40.62;101185.75;4996583;28;47786;-82
2022/07/30 08:01:39;;;;;;;;;8.00;8.00;;;;;24.23;39.87;101201.78;5014983;28;45776;-86
2022/07/30 08:04:05;;;;;;;;;8.75;8.75;;;;;24.16;39.73;101178.56;5015159;28;45815;-83
2022/07/30 08:06:30;;;;;;;;;8.00;7.00;;;;;24.35;39.70;101193.28;5017693;28;45648;-82
2022/07/30 08:08:56;;;;;;;;;8.00;7.50;;;;;24.42;39.70;101186.16;5018656;28;45765;-82
2022/07/30 08:11:21;;;;;;;;;6.75;6.50;;;;;24.47;39.61;101189.94;5017569;28;45816;-80
2022/07/30 08:13:47;;;;;;;;;8.00;7.00;;;;;24.57;40.05;101185.13;5015223;28;45567;-80
2022/07/30 08:16:13;;;;;;;;;8.50;8.50;;;;;24.58;39.17;101183.28;5015213;28;46847;-85
2022/07/30 08:18:39;;;;;;;;;13.00;11.00;;;;;24.70;39.28;101187.16;5014803;28;46135;-83
2022/07/30 08:21:05;;;;;;;;;17.00;16.00;;;;;24.80;38.77;101195.75;4999821;28;45864;-81
2022/07/30 08:23:30;;;;;;;;;23.75;20.25;;;;;24.83;38.39;101195.38;5019202;28;45691;-85
2022/07/30 08:25:57;;;;;;;;;17.25;16.25;;;;;24.83;39.09;101189.19;5019707;28;46440;-80
2022/07/30 08:28:23;;;;;;;;;21.25;18.25;;;;;24.87;38.52;101198.53;4999829;28;47636;-83
2022/07/30 08:30:48;;;;;;;;;15.50;14.25;;;;;24.89;38.84;101197.31;5016371;28;45753;-78
2022/07/30 08:33:14;;;;;;;;;13.25;10.50;;;;;24.86;38.62;101191.50;5015822;28;45636;-82
2022/07/30 08:35:40;;;;;;;;;8.00;8.00;;;;;24.99;38.35;101213.16;5016467;28;47228;-87
2022/07/30 08:38:05;;;;;;;;;7.00;6.00;;;;;24.94;37.53;101192.22;4996332;28;47202;-81
2022/07/30 08:40:33;;;;;;;;;5.00;5.00;;;;;24.96;37.81;101192.06;5013257;28;45845;-80
2022/07/30 08:43:00;;;;;;;;;7.00;6.00;;;;;24.95;37.37;101193.91;5014413;28;45730;-86
2022/07/30 08:45:27;;;;;;;;;6.25;6.25;;;;;25.00;37.72;101194.16;5015581;28;46997;-81
2022/07/30 08:47:56;;;;;;;;;6.00;5.75;;;;;25.04;36.92;101190.09;4997861;28;47306;-79
2022/07/30 08:50:22;;;;;;;;;5.25;5.00;;;;;25.12;37.36;101196.34;5015351;28;45729;-86
2022/07/30 08:52:49;;;;;;;;;6.00;5.50;;;;;25.21;37.23;101205.97;4998962;28;45932;-86
2022/07/30 08:55:15;;;;;;;;;6.00;4.75;;;;;25.25;36.83;101201.88;5015376;28;46620;-81
2022/07/30 08:57:42;;;;;;;;;5.00;5.00;;;;;25.23;36.74;101198.53;5014945;28;46012;-83
2022/07/30 09:00:08;;;;;;;;;5.00;5.00;;;;;25.29;36.76;101209.34;5017025;28;45717;-81
2022/07/30 09:02:34;;;;;;;;;5.75;5.00;;;;;25.18;36.19;101182.19;5015708;28;46010;-81
2022/07/30 09:04:59;;;;;;;;;5.25;5.00;;;;;25.25;36.56;101191.16;5015589;28;46490;-85
2022/07/30 09:07:25;;;;;;;;;4.00;4.00;;;;;25.30;36.40;101202.13;5016750;28;46516;-82
2022/07/30 09:09:50;;;;;;;;;5.00;4.75;;;;;25.28;35.83;101190.75;5013935;28;45844;-81
2022/07/30 09:12:39;;;;;;;;;3.25;3.25;;;;;25.38;34.99;101205.50;5016898;28;45656;-79
2022/07/30 09:15:04;;;;;;;;;3.00;2.25;;;;;25.40;34.28;101203.47;5016213;28;46762;-81
2022/07/30 09:17:50;;;;;;;;;3.00;3.00;;;;;25.42;33.64;101203.31;5014800;28;46225;-81
2022/07/30 09:20:16;;;;;;;;;3.00;3.00;;;;;25.53;33.21;101207.31;5013006;28;45596;-86
2022/07/30 09:22:46;;;;;;;;;2.75;2.25;;;;;25.56;33.51;101199.75;5014627;28;45865;-85
2022/07/30 09:25:11;;;;;;;;;5.00;4.00;;;;;25.68;33.59;101202.75;5014807;28;46646;-80
2022/07/30 09:27:47;;;;;;;;;3.00;3.00;;;;;25.77;33.00;101210.47;5013976;28;45745;-85
2022/07/30 09:30:13;;;;;;;;;4.00;4.00;;;;;25.75;33.46;101193.72;4995930;28;46185;-77
2022/07/30 09:32:55;;;;;;;;;4.75;4.75;;;;;25.89;33.40;101214.28;5015887;28;45739;-79
2022/07/30 09:35:23;;;;;;;;;4.00;4.00;;;;;25.92;33.21;101224.63;4985364;28;45949;-82
2022/07/30 09:37:59;;;;;;;;;4.75;4.75;;;;;25.93;33.35;101212.03;5014434;28;45645;-83
2022/07/30 09:40:24;;;;;;;;;4.50;4.25;;;;;25.91;33.24;101200.69;5013609;28;45650;-78
2022/07/30 09:43:04;;;;;;;;;4.00;4.00;;;;;25.94;33.38;101212.88;5014639;28;45810;-81
2022/07/30 09:45:30;;;;;;;;;4.00;4.00;;;;;25.97;33.45;101197.19;5014831;28;45898;-84
2022/07/30 09:47:56;;;;;;;;;3.00;3.00;;;;;26.07;33.20;101210.31;5013548;28;47714;-78
2022/07/30 09:50:23;;;;;;;;;3.25;3.25;;;;;26.10;33.25;101209.91;5015694;28;46231;-82
2022/07/30 09:52:54;;;;;;;;;4.50;4.50;;;;;26.17;33.05;101221.53;5015694;28;45690;-79
2022/07/30 09:55:34;;;;;;;;;6.75;4.00;;;;;26.18;33.02;101224.00;5007056;28;48470;-79
2022/07/30 09:58:04;;;;;;;;;3.25;3.25;;;;;26.25;33.17;101218.72;5004401;28;46057;-79
2022/07/30 10:00:33;;;;;;;;;3.75;3.50;;;;;26.26;33.37;101205.09;5014887;28;45809;-82
2022/07/30 10:02:59;;;;;;;;;4.25;4.25;;;;;26.34;32.68;101209.50;4996913;28;45962;-81
2022/07/30 10:05:26;;;;;;;;;5.25;4.00;;;;;26.36;32.93;101204.72;5014652;28;46519;-81
2022/07/30 10:07:58;;;;;;;;;5.00;4.75;;;;;26.50;32.63;101214.56;5015654;28;45699;-79
2022/07/30 10:10:29;;;;;;;;;5.75;5.25;;;;;26.50;33.00;101203.81;5016017;28;45725;-77
2022/07/30 10:13:00;;;;;;;;;4.25;4.25;;;;;26.52;33.16;101193.66;5017668;28;45880;-84
2022/07/30 10:15:32;;;;;;;;;5.00;5.00;;;;;26.66;32.89;101214.22;5015682;28;45740;-82
2022/07/30 10:17:58;;;;;;;;;3.00;3.00;;;;;26.68;32.70;101206.75;5016400;28;46089;-81
2022/07/30 10:20:25;;;;;;;;;4.00;4.00;;;;;26.81;32.80;101214.06;5018023;28;45880;-82
2022/07/30 10:22:51;;;;;;;;;4.00;4.00;;;;;26.87;33.22;101220.50;5019292;28;45522;-81
2022/07/30 10:25:21;;;;;;;;;3.50;3.50;;;;;26.89;32.90;101216.59;5001817;28;47427;-78
2022/07/30 10:27:48;;;;;;;;;6.25;5.75;;;;;26.90;32.96;101215.59;5019736;28;45970;-78
2022/07/30 10:30:15;;;;;;;;;4.75;4.00;;;;;26.94;32.76;101208.75;5000915;28;45768;-80
2022/07/30 10:32:41;;;;;;;;;6.25;6.25;;;;;26.94;32.69;101202.56;5019618;28;46156;-78
2022/07/30 10:35:07;;;;;;;;;4.25;4.25;;;;;26.99;32.61;101208.19;5006684;28;47017;-81
2022/07/30 10:37:35;;;;;;;;;5.50;3.75;;;;;27.05;32.28;101207.34;5019080;28;46154;-83
2022/07/30 10:40:28;;;;;;;;;5.00;4.75;;;;;27.10;32.15;101191.44;5018541;28;45788;-83
2022/07/30 10:43:02;;;;;;;;;6.00;5.00;;;;;27.14;31.82;101190.00;5018789;28;45593;-78
2022/07/30 10:45:40;;;;;;;;;4.25;4.25;;;;;27.16;32.26;101196.00;5019086;28;45880;-81
2022/07/30 10:48:06;;;;;;;;;4.00;4.00;;;;;27.13;31.81;101180.28;5014709;28;45769;-79
2022/07/30 10:50:32;;;;;;;;;4.00;3.75;;;;;27.19;32.15;101182.16;5013415;28;46015;-83
2022/07/30 10:53:00;;;;;;;;;5.50;5.50;;;;;27.26;32.80;101184.88;5013380;28;45744;-80
2022/07/30 10:55:34;;;;;;;;;4.25;4.00;;;;;27.31;32.18;101196.69;5013884;28;45697;-78
2022/07/30 10:58:00;;;;;;;;;4.75;4.75;;;;;27.35;32.85;101189.03;5014140;28;46137;-83
2022/07/30 11:00:27;;;;;;;;;5.00;5.00;;;;;27.32;33.13;101175.94;4997461;28;45763;-76
2022/07/30 11:03:14;;;;;;;;;5.25;5.00;;;;;27.44;32.39;101195.84;5016276;28;46568;-79
2022/07/30 11:05:40;;;;;;;;;5.50;5.50;;;;;27.41;31.78;101186.34;5016391;28;45939;-81
2022/07/30 11:08:35;;;;;;;;;5.25;5.00;;;;;27.47;32.63;101179.31;4998432;28;48006;-78
2022/07/30 11:11:21;;;;;;;;;5.00;5.00;;;;;27.48;32.58;101186.34;5014141;28;45671;-80
2022/07/30 11:13:49;;;;;;;;;3.50;3.50;;;;;27.50;32.61;101178.91;5015016;28;45961;-83
2022/07/30 11:16:16;;;;;;;;;5.00;5.00;;;;;27.52;32.66;101176.88;5016695;28;46396;-78
2022/07/30 11:19:19;;;;;;;;;5.00;5.00;;;;;27.57;32.06;101173.56;5016622;28;45828;-81
2022/07/30 11:21:46;;;;;;;;;6.25;6.00;;;;;27.58;32.49;101177.91;4922242;28;45785;-79
2022/07/30 11:24:45;;;;;;;;;7.00;6.00;;;;;27.64;32.35;101167.13;4922499;28;45654;-80
2022/07/30 11:27:49;;;;;;;;;4.25;4.00;;;;;27.69;32.75;101170.03;4881785;29;45737;-81
2022/07/30 11:30:14;;;;;;;;;6.25;5.50;;;;;27.76;31.79;101170.84;4865368;29;46345;-80
2022/07/30 11:32:40;;;;;;;;;4.75;4.75;;;;;27.81;32.15;101172.91;4864823;29;46122;-86